New Plymouth, Idaho
Current Conditions -  °F | °C
As of 11:53 PM on Thursday 27 Nov 2014 (Local Time) from KONO Reporting Station
Broken Clouds Broken Clouds  
Wind Chill:   Ceiling: 12000
Heat Index:   Visibility: 8mi
Dew Point:   Wind: 6mph
Humidity: 89%   Direction: 180°S
Pressure: 29.99"   Gusts: NA
Location:  43.97°N, 116.82°W
Report Text: KONO 280653Z AUTO 18005KT 8SM SCT100 BKN120 06/04 A2999 RMK AO2 SLP168 T00560039 400720028
Loading
Personal Weather Stations






























Interactive Weather Map New forecast layout! Learn more

10-Day Weather Forecast

Advertisements
Track Severe Weather on mobile